Time;durP1;ratioP1;P1;durP2;ratioP2;P2;SDS_P1;SDS_P2;PMS_P1;PMS_P2;Temp;Humidity;BMP_temperature;BMP_pressure;BME280_temperature;BME280_humidity;BME280_pressure;Samples;Min_cycle;Max_cycle;Signal;HPM_P1;HPM_P2
2024/03/28 00:01:25;;;;;;;8.48;7.05;;;13.30;93.10;;;;;;5041808;28;20041;-65
2024/03/28 00:04:11;;;;;;;10.63;6.93;;;13.30;93.20;;;;;;5034545;28;20049;-64
2024/03/28 00:06:58;;;;;;;9.63;6.97;;;13.30;93.20;;;;;;5049409;28;20098;-64
2024/03/28 00:09:44;;;;;;;8.30;6.57;;;13.20;93.30;;;;;;5050804;28;20069;-64
2024/03/28 00:12:30;;;;;;;9.75;7.00;;;13.20;93.30;;;;;;5046178;28;20053;-64
2024/03/28 00:15:16;;;;;;;9.18;6.78;;;13.10;93.40;;;;;;5049087;28;20416;-64
2024/03/28 00:18:02;;;;;;;10.25;7.13;;;13.10;93.50;;;;;;5050061;28;20061;-64
2024/03/28 00:20:55;;;;;;;7.70;6.15;;;13.10;93.60;;;;;;5052194;28;20400;-64
2024/03/28 00:23:41;;;;;;;7.65;6.28;;;13.00;93.60;;;;;;5046047;28;20040;-63
2024/03/28 00:26:27;;;;;;;8.95;6.88;;;13.00;93.60;;;;;;5047608;28;20044;-63
2024/03/28 00:29:13;;;;;;;9.75;6.65;;;13.00;93.70;;;;;;5041471;28;20037;-64
2024/03/28 00:31:59;;;;;;;9.10;6.97;;;13.00;93.80;;;;;;5041807;28;20075;-64
2024/03/28 00:34:45;;;;;;;9.75;7.40;;;13.00;93.80;;;;;;5046295;28;20724;-64
2024/03/28 00:37:31;;;;;;;12.57;8.15;;;12.90;93.90;;;;;;5047567;28;21598;-65
2024/03/28 00:40:17;;;;;;;10.88;7.50;;;12.90;93.90;;;;;;5042170;28;20045;-64
2024/03/28 00:43:03;;;;;;;13.02;7.90;;;12.90;94.00;;;;;;5049068;28;20044;-63
2024/03/28 00:45:50;;;;;;;10.68;7.95;;;12.80;94.10;;;;;;5044286;28;20592;-64
2024/03/28 00:48:36;;;;;;;9.65;6.88;;;12.80;94.30;;;;;;5032028;28;20507;-64
2024/03/28 00:51:22;;;;;;;11.25;7.70;;;12.80;94.20;;;;;;5045786;28;20037;-64
2024/03/28 00:54:08;;;;;;;7.78;6.93;;;12.70;94.20;;;;;;5040598;28;20493;-64
2024/03/28 00:56:54;;;;;;;11.23;7.60;;;12.80;94.30;;;;;;5034685;28;20108;-64
2024/03/28 00:59:41;;;;;;;11.60;7.53;;;12.70;94.30;;;;;;5049208;28;20048;-64
2024/03/28 01:02:27;;;;;;;10.15;7.10;;;12.70;94.50;;;;;;5049509;28;20044;-63
2024/03/28 01:05:14;;;;;;;8.45;7.28;;;12.60;94.50;;;;;;5045534;28;20077;-64
2024/03/28 01:08:00;;;;;;;8.82;7.10;;;12.60;94.60;;;;;;5040318;28;20041;-64
2024/03/28 01:10:46;;;;;;;8.93;7.13;;;12.60;94.70;;;;;;5040103;28;20110;-64
2024/03/28 01:13:32;;;;;;;8.00;6.63;;;12.60;94.80;;;;;;5039324;28;20057;-64
2024/03/28 01:16:18;;;;;;;14.25;7.80;;;12.60;94.80;;;;;;5034423;28;20060;-65
2024/03/28 01:19:04;;;;;;;9.65;6.72;;;12.60;94.90;;;;;;5046927;28;20487;-65
2024/03/28 01:21:50;;;;;;;8.43;6.57;;;12.50;94.90;;;;;;5031676;28;20038;-65
2024/03/28 01:24:36;;;;;;;8.25;6.65;;;12.50;95.00;;;;;;5038882;28;20132;-65
2024/03/28 01:27:22;;;;;;;11.43;7.95;;;12.50;95.10;;;;;;5041367;28;20560;-65
2024/03/28 01:30:09;;;;;;;9.75;7.28;;;12.50;95.10;;;;;;5045425;28;20041;-64
2024/03/28 01:32:55;;;;;;;8.20;7.07;;;12.50;95.20;;;;;;5042156;28;20099;-65
2024/03/28 01:35:41;;;;;;;12.57;7.25;;;12.50;95.20;;;;;;5047682;28;20033;-64
2024/03/28 01:38:26;;;;;;;11.20;7.45;;;12.50;95.30;;;;;;5047268;28;20052;-64
2024/03/28 01:41:12;;;;;;;7.85;6.65;;;12.40;95.40;;;;;;5049733;28;20040;-64
2024/03/28 01:43:59;;;;;;;8.38;7.03;;;12.40;95.40;;;;;;5041852;28;20413;-64
2024/03/28 01:46:46;;;;;;;11.57;7.40;;;12.40;95.50;;;;;;5044651;28;20079;-64
2024/03/28 01:49:33;;;;;;;10.75;7.55;;;12.40;95.60;;;;;;5037343;28;20072;-64
2024/03/28 01:52:19;;;;;;;12.32;7.28;;;12.30;95.60;;;;;;5048041;28;20141;-64
2024/03/28 01:55:06;;;;;;;12.13;8.05;;;12.40;95.70;;;;;;5048155;28;20071;-64
2024/03/28 01:57:52;;;;;;;13.65;7.68;;;12.30;95.70;;;;;;5051237;28;20103;-64
2024/03/28 02:00:38;;;;;;;9.48;7.40;;;12.30;95.80;;;;;;5042906;28;20045;-64
2024/03/28 02:03:24;;;;;;;9.13;7.03;;;12.30;95.90;;;;;;5041634;28;20116;-64
2024/03/28 02:06:10;;;;;;;9.45;6.80;;;12.30;95.90;;;;;;5040027;28;20045;-64
2024/03/28 02:08:56;;;;;;;10.48;7.45;;;12.30;96.00;;;;;;5042424;28;20045;-64
2024/03/28 02:11:42;;;;;;;10.32;7.35;;;12.20;96.10;;;;;;5042040;28;20107;-63
2024/03/28 02:14:28;;;;;;;10.68;7.93;;;12.20;96.20;;;;;;5050822;28;20088;-64
2024/03/28 02:17:14;;;;;;;12.23;7.97;;;12.20;96.40;;;;;;5041153;28;20044;-64
2024/03/28 02:20:00;;;;;;;9.38;7.20;;;12.20;96.30;;;;;;5033692;28;20073;-63
2024/03/28 02:22:46;;;;;;;10.82;8.00;;;12.10;96.30;;;;;;5045381;28;20087;-64
2024/03/28 02:25:32;;;;;;;9.60;7.07;;;12.10;96.40;;;;;;5049029;28;20041;-64
2024/03/28 02:28:18;;;;;;;12.15;8.43;;;12.10;96.50;;;;;;5032278;28;20512;-64
2024/03/28 02:31:04;;;;;;;10.75;7.57;;;12.10;96.60;;;;;;5036682;28;20032;-64
2024/03/28 02:33:49;;;;;;;14.65;8.63;;;12.10;96.60;;;;;;5039289;28;20042;-64
2024/03/28 02:36:35;;;;;;;9.70;7.40;;;12.10;96.70;;;;;;5030992;28;20045;-64
2024/03/28 02:39:21;;;;;;;12.63;8.13;;;12.10;96.80;;;;;;5053187;28;20381;-63
2024/03/28 02:42:07;;;;;;;8.88;7.90;;;12.10;96.80;;;;;;5038907;28;20033;-64
2024/03/28 02:44:53;;;;;;;11.68;7.38;;;12.00;97.10;;;;;;5040245;28;20052;-64
2024/03/28 02:47:39;;;;;;;12.88;7.95;;;12.00;96.90;;;;;;5033657;28;20038;-64
2024/03/28 02:50:25;;;;;;;10.95;8.05;;;12.00;97.00;;;;;;5039805;28;20045;-64
2024/03/28 02:53:11;;;;;;;10.80;8.55;;;12.00;97.10;;;;;;5040694;28;20120;-64
2024/03/28 02:55:57;;;;;;;10.52;8.38;;;12.00;97.10;;;;;;5044059;28;20040;-63
2024/03/28 02:58:43;;;;;;;9.77;7.85;;;11.90;97.10;;;;;;5044955;28;20132;-64
2024/03/28 03:01:29;;;;;;;10.75;7.30;;;11.90;97.20;;;;;;5046879;28;20041;-63
2024/03/28 03:04:15;;;;;;;9.25;7.38;;;11.90;97.30;;;;;;5050966;28;20052;-64
2024/03/28 03:07:01;;;;;;;10.27;7.63;;;11.90;97.60;;;;;;5035303;28;20038;-63
2024/03/28 03:09:47;;;;;;;10.63;8.00;;;11.90;97.40;;;;;;5045984;28;20063;-64
2024/03/28 03:12:33;;;;;;;10.65;8.18;;;11.80;97.40;;;;;;5052162;28;20063;-63
2024/03/28 03:15:19;;;;;;;10.50;7.82;;;11.80;97.50;;;;;;5044586;28;20048;-64
2024/03/28 03:18:05;;;;;;;9.27;7.80;;;11.80;97.60;;;;;;5044304;28;20049;-64
2024/03/28 03:21:02;;;;;;;10.60;8.38;;;11.80;97.60;;;;;;5048521;28;20048;-64
2024/03/28 03:23:49;;;;;;;9.93;7.82;;;11.80;97.70;;;;;;5060268;28;20098;-64
2024/03/28 03:26:35;;;;;;;9.98;7.95;;;11.70;97.70;;;;;;5036841;28;20663;-65
2024/03/28 03:35:33;;;;;;;10.93;8.00;;;11.60;97.80;;;;;;5050693;28;20037;-65
2024/03/28 03:38:19;;;;;;;10.68;8.27;;;11.70;97.90;;;;;;5050346;28;20081;-65
2024/03/28 03:41:05;;;;;;;9.73;7.70;;;11.70;98.00;;;;;;5048737;28;20064;-65
2024/03/28 03:43:51;;;;;;;13.32;8.48;;;11.70;98.10;;;;;;5048535;28;20049;-65
2024/03/28 03:46:37;;;;;;;11.77;7.70;;;11.70;98.20;;;;;;5034303;28;20041;-63
2024/03/28 03:49:23;;;;;;;12.18;8.88;;;11.70;98.20;;;;;;5039388;28;20122;-65
2024/03/28 03:52:10;;;;;;;11.07;8.80;;;11.70;98.30;;;;;;5046285;28;20041;-64
2024/03/28 03:54:57;;;;;;;13.55;8.27;;;11.70;98.40;;;;;;5052549;28;20044;-64
2024/03/28 03:57:43;;;;;;;11.32;8.13;;;11.70;98.40;;;;;;5037573;28;20443;-65
2024/03/28 04:00:29;;;;;;;12.23;8.70;;;11.70;98.50;;;;;;5032656;28;20424;-65
2024/03/28 04:03:17;;;;;;;10.27;8.90;;;11.70;98.50;;;;;;5031621;28;20041;-65
2024/03/28 04:06:03;;;;;;;14.18;9.35;;;11.80;98.60;;;;;;5039536;28;20390;-64
2024/03/28 04:08:50;;;;;;;16.25;9.15;;;11.80;98.60;;;;;;5042285;28;20545;-64
2024/03/28 04:11:36;;;;;;;12.57;9.00;;;11.80;98.70;;;;;;5049398;28;20044;-65
2024/03/28 04:14:22;;;;;;;12.15;8.95;;;11.80;98.80;;;;;;5048510;28;20439;-65
2024/03/28 04:17:08;;;;;;;11.95;9.52;;;11.80;98.80;;;;;;5051180;28;20041;-65
2024/03/28 04:19:54;;;;;;;19.20;9.82;;;11.80;98.80;;;;;;5031918;28;20053;-65
2024/03/28 04:22:41;;;;;;;13.18;8.30;;;11.80;98.90;;;;;;5033738;28;20115;-64
2024/03/28 04:25:28;;;;;;;14.43;10.75;;;11.80;98.90;;;;;;5048418;28;20477;-64
2024/03/28 04:28:14;;;;;;;11.82;9.93;;;11.90;99.00;;;;;;5038271;28;20036;-64
2024/03/28 04:31:00;;;;;;;12.35;9.32;;;11.90;99.00;;;;;;5046706;28;20044;-65
2024/03/28 04:33:47;;;;;;;12.93;10.25;;;11.90;99.00;;;;;;5050913;28;20036;-65
2024/03/28 04:36:33;;;;;;;13.65;9.30;;;11.90;99.10;;;;;;5049283;28;20079;-64
2024/03/28 04:39:19;;;;;;;13.90;10.10;;;11.90;99.10;;;;;;5049842;28;20566;-65
2024/03/28 04:42:05;;;;;;;15.32;10.73;;;11.90;99.20;;;;;;5044321;28;20040;-65
2024/03/28 04:44:51;;;;;;;14.48;9.27;;;11.90;99.20;;;;;;5046803;28;20046;-64
2024/03/28 04:47:37;;;;;;;16.08;9.77;;;12.00;99.30;;;;;;5044503;28;20063;-64
2024/03/28 04:50:23;;;;;;;15.60;10.07;;;12.00;99.20;;;;;;5048147;28;20116;-69
2024/03/28 04:53:08;;;;;;;12.98;10.00;;;12.00;99.20;;;;;;5037677;28;20045;-70
2024/03/28 04:55:54;;;;;;;12.60;10.00;;;12.00;99.30;;;;;;5043047;28;20041;-70
2024/03/28 04:58:40;;;;;;;14.15;11.00;;;12.00;99.30;;;;;;5048343;28;20056;-69
2024/03/28 05:01:26;;;;;;;16.25;12.30;;;12.00;99.30;;;;;;5050281;28;20041;-68
2024/03/28 05:04:12;;;;;;;14.63;11.15;;;12.00;99.40;;;;;;5038470;28;20048;-69
2024/03/28 05:06:59;;;;;;;15.38;11.30;;;12.00;99.40;;;;;;5041256;28;20049;-69
2024/03/28 05:09:48;;;;;;;14.10;10.20;;;12.00;99.30;;;;;;5048702;28;20167;-69
2024/03/28 05:12:33;;;;;;;12.00;9.93;;;12.00;99.30;;;;;;5034125;28;20063;-68
2024/03/28 05:15:19;;;;;;;16.55;10.70;;;12.10;99.30;;;;;;5051492;28;20033;-68
2024/03/28 05:18:06;;;;;;;12.02;9.93;;;12.10;99.30;;;;;;5047344;28;20404;-68
2024/03/28 05:20:53;;;;;;;10.90;9.38;;;12.10;99.30;;;;;;5046911;28;20053;-68
2024/03/28 05:23:39;;;;;;;14.50;9.98;;;12.10;99.30;;;;;;5042704;28;20128;-69
2024/03/28 05:26:25;;;;;;;12.85;10.15;;;12.10;99.30;;;;;;5049168;28;20037;-69
2024/03/28 05:29:11;;;;;;;15.25;10.57;;;12.10;99.30;;;;;;5031584;28;20500;-68
2024/03/28 05:31:57;;;;;;;16.65;10.57;;;12.10;99.30;;;;;;5028559;28;20033;-68
2024/03/28 05:34:43;;;;;;;14.85;11.38;;;12.10;99.20;;;;;;5040898;28;20099;-67
2024/03/28 05:37:29;;;;;;;13.65;11.43;;;12.20;99.30;;;;;;5038385;28;20477;-67
2024/03/28 05:40:15;;;;;;;15.52;12.02;;;12.20;99.20;;;;;;5039758;28;20437;-67
2024/03/28 05:43:01;;;;;;;16.00;11.55;;;12.20;99.30;;;;;;5046213;28;20103;-67
2024/03/28 05:45:47;;;;;;;17.00;12.48;;;12.20;99.20;;;;;;5048200;28;20115;-68
2024/03/28 05:48:33;;;;;;;16.10;12.68;;;12.20;99.20;;;;;;5046771;28;20045;-67
2024/03/28 05:51:19;;;;;;;18.13;13.48;;;12.20;99.30;;;;;;5037809;28;20401;-67
2024/03/28 05:54:07;;;;;;;17.02;13.75;;;12.20;99.30;;;;;;5044935;28;20040;-67
2024/03/28 05:56:52;;;;;;;20.48;14.07;;;12.20;99.40;;;;;;5049630;28;20552;-67
2024/03/28 05:59:40;;;;;;;20.75;15.50;;;12.20;99.40;;;;;;5045275;28;20419;-67
2024/03/28 06:02:26;;;;;;;21.23;15.82;;;12.20;99.50;;;;;;5047041;28;20069;-68
2024/03/28 06:05:12;;;;;;;20.98;16.08;;;12.20;99.50;;;;;;5051393;28;20049;-65
2024/03/28 06:07:58;;;;;;;23.40;16.55;;;12.20;99.50;;;;;;5047000;28;20041;-65
2024/03/28 06:10:44;;;;;;;21.80;16.17;;;12.20;99.60;;;;;;5035979;28;20052;-65
2024/03/28 06:13:31;;;;;;;21.33;14.90;;;12.20;99.60;;;;;;5050256;28;20049;-64
2024/03/28 06:16:17;;;;;;;21.05;15.65;;;12.20;99.60;;;;;;5034431;28;20635;-64
2024/03/28 06:19:03;;;;;;;19.75;15.02;;;12.20;99.60;;;;;;5045223;28;20416;-64
2024/03/28 06:21:49;;;;;;;21.05;16.27;;;12.20;99.60;;;;;;5051261;28;20048;-64
2024/03/28 06:24:35;;;;;;;21.50;15.93;;;12.20;99.60;;;;;;5052668;28;20049;-64
2024/03/28 06:27:21;;;;;;;21.63;16.58;;;12.20;99.60;;;;;;5048748;28;20044;-64
2024/03/28 06:30:07;;;;;;;26.58;15.23;;;12.20;99.60;;;;;;5045383;28;20516;-64
2024/03/28 06:32:53;;;;;;;19.88;14.98;;;12.20;99.70;;;;;;5051520;28;20114;-64
2024/03/28 06:35:39;;;;;;;19.67;14.80;;;12.20;99.70;;;;;;5053526;28;20126;-64
2024/03/28 06:38:25;;;;;;;20.90;14.93;;;12.20;99.70;;;;;;5051477;28;20412;-64
2024/03/28 06:41:12;;;;;;;17.50;13.88;;;12.20;99.70;;;;;;5045164;28;20072;-64
2024/03/28 06:43:58;;;;;;;15.55;11.77;;;12.20;99.80;;;;;;5043430;28;20053;-64
2024/03/28 06:46:44;;;;;;;12.18;8.93;;;12.20;99.70;;;;;;5045098;28;20095;-64
2024/03/28 06:49:30;;;;;;;9.35;7.13;;;12.20;99.60;;;;;;5045820;28;20045;-65
2024/03/28 06:52:16;;;;;;;8.05;5.53;;;12.20;99.50;;;;;;5047279;28;20103;-65
2024/03/28 06:55:02;;;;;;;8.10;6.00;;;12.10;99.40;;;;;;5046341;28;20565;-64
2024/03/28 06:57:48;;;;;;;5.82;4.30;;;12.10;99.40;;;;;;5052494;28;20136;-65
2024/03/28 07:00:34;;;;;;;3.90;2.58;;;12.10;99.30;;;;;;5043745;28;20053;-65
2024/03/28 07:03:20;;;;;;;4.03;2.30;;;12.00;99.10;;;;;;5024572;28;20040;-65
2024/03/28 07:06:07;;;;;;;2.40;1.85;;;12.00;98.90;;;;;;5049129;28;20385;-65
2024/03/28 07:08:53;;;;;;;3.38;2.10;;;11.90;98.80;;;;;;5051886;28;20040;-65
2024/03/28 07:11:39;;;;;;;3.10;1.98;;;11.90;98.70;;;;;;5048896;28;20045;-65
2024/03/28 07:14:25;;;;;;;4.72;2.30;;;11.90;98.60;;;;;;5044301;28;20075;-65
2024/03/28 07:17:11;;;;;;;3.40;2.25;;;11.90;98.60;;;;;;5050238;28;20047;-66
2024/03/28 07:19:57;;;;;;;2.83;1.95;;;11.90;98.60;;;;;;5040348;28;20060;-67
2024/03/28 07:22:43;;;;;;;2.15;1.35;;;11.90;98.60;;;;;;5034523;28;20033;-68
2024/03/28 07:25:29;;;;;;;3.03;1.90;;;11.90;98.50;;;;;;5039164;28;20098;-67
2024/03/28 07:28:15;;;;;;;3.13;1.88;;;11.90;98.50;;;;;;5046211;28;20511;-69
2024/03/28 07:31:01;;;;;;;2.65;1.77;;;11.90;98.40;;;;;;5045259;28;20435;-75
2024/03/28 07:33:49;;;;;;;3.60;2.00;;;11.90;98.50;;;;;;5044481;28;20047;-75
2024/03/28 07:36:35;;;;;;;2.53;1.80;;;11.90;98.50;;;;;;5049368;28;20045;-75
2024/03/28 07:39:22;;;;;;;2.97;1.90;;;11.80;98.40;;;;;;5050006;28;20084;-75
2024/03/28 07:42:08;;;;;;;3.60;2.40;;;11.80;98.40;;;;;;5049602;28;20037;-73
2024/03/28 07:44:54;;;;;;;2.92;2.00;;;11.90;98.30;;;;;;5050411;28;20052;-76
2024/03/28 07:47:41;;;;;;;2.38;1.75;;;11.90;98.20;;;;;;5046526;28;20521;-76
2024/03/28 07:50:27;;;;;;;3.65;2.38;;;11.90;98.20;;;;;;5048004;28;20432;-75
2024/03/28 07:53:13;;;;;;;3.15;2.35;;;11.90;98.10;;;;;;5043914;28;20478;-73
2024/03/28 07:56:00;;;;;;;2.95;2.20;;;11.90;98.00;;;;;;5042257;28;20531;-75
2024/03/28 07:58:46;;;;;;;2.78;2.13;;;11.90;97.90;;;;;;5045912;28;20056;-75
2024/03/28 08:01:32;;;;;;;3.13;2.30;;;12.00;97.90;;;;;;5050939;28;20044;-75
2024/03/28 08:04:18;;;;;;;2.80;2.25;;;12.00;97.90;;;;;;5045722;28;20044;-75
2024/03/28 08:07:04;;;;;;;4.85;2.25;;;12.00;97.80;;;;;;5040515;28;20052;-76
2024/03/28 08:09:50;;;;;;;4.38;2.30;;;12.00;97.90;;;;;;5045991;28;20422;-76
2024/03/28 08:12:37;;;;;;;3.17;2.20;;;12.00;97.80;;;;;;5047645;28;20427;-76
2024/03/28 08:15:27;;;;;;;3.45;2.17;;;12.00;97.80;;;;;;5037411;28;20041;-76
2024/03/28 08:18:13;;;;;;;2.90;2.00;;;11.90;97.70;;;;;;5043993;28;20107;-77
2024/03/28 08:20:59;;;;;;;3.08;2.15;;;11.90;97.70;;;;;;5041183;28;20100;-77
2024/03/28 08:23:45;;;;;;;2.45;1.73;;;12.00;97.60;;;;;;5037475;28;20115;-77
2024/03/28 08:26:35;;;;;;;3.03;2.08;;;12.00;97.60;;;;;;5046708;28;20037;-73
2024/03/28 08:29:21;;;;;;;2.17;1.65;;;12.00;97.50;;;;;;5046123;28;20048;-77
2024/03/28 08:32:08;;;;;;;2.10;1.75;;;12.00;97.40;;;;;;5047048;28;20086;-78
2024/03/28 08:34:54;;;;;;;5.30;2.10;;;12.10;97.50;;;;;;5030032;28;20531;-76
2024/03/28 08:37:40;;;;;;;2.42;1.90;;;12.10;97.40;;;;;;5045298;28;20515;-75
2024/03/28 08:40:26;;;;;;;2.83;1.60;;;12.10;97.40;;;;;;5048976;28;20045;-76
2024/03/28 08:43:12;;;;;;;2.58;1.90;;;12.10;97.40;;;;;;5045997;28;20041;-77
2024/03/28 08:45:58;;;;;;;3.05;1.70;;;12.20;97.40;;;;;;5051844;28;20037;-76
2024/03/28 08:48:46;;;;;;;2.30;1.73;;;12.20;97.40;;;;;;5024949;28;20039;-77
2024/03/28 08:51:32;;;;;;;2.75;1.67;;;12.20;97.30;;;;;;5046421;28;20127;-70
2024/03/28 08:54:18;;;;;;;3.40;1.58;;;12.20;97.10;;;;;;5036464;28;20534;-70
2024/03/28 08:57:04;;;;;;;1.98;1.67;;;12.30;97.10;;;;;;5026751;28;20503;-70
2024/03/28 08:59:51;;;;;;;2.15;1.67;;;12.20;97.00;;;;;;5033937;28;20047;-70
2024/03/28 09:02:38;;;;;;;3.00;1.85;;;12.30;97.00;;;;;;5046376;28;21714;-69
2024/03/28 09:05:24;;;;;;;2.38;1.60;;;12.30;96.90;;;;;;5037821;28;20493;-69
2024/03/28 09:08:10;;;;;;;2.20;1.45;;;12.30;96.80;;;;;;5047408;28;20439;-69
2024/03/28 09:10:56;;;;;;;1.77;1.33;;;12.30;96.60;;;;;;5049707;28;20122;-69
2024/03/28 09:13:42;;;;;;;1.42;1.30;;;12.30;96.50;;;;;;5027494;28;20042;-69
2024/03/28 09:16:31;;;;;;;1.45;1.30;;;12.30;96.50;;;;;;5026303;28;20130;-69
2024/03/28 09:19:18;;;;;;;1.52;1.30;;;12.30;96.30;;;;;;5029787;28;20049;-69
2024/03/28 09:22:04;;;;;;;1.70;1.30;;;12.30;96.30;;;;;;5027408;28;20046;-68
2024/03/28 09:24:50;;;;;;;1.38;1.10;;;12.30;96.40;;;;;;5029108;28;20516;-72
2024/03/28 09:27:37;;;;;;;2.20;1.05;;;12.30;96.00;;;;;;5028141;28;20076;-70
2024/03/28 09:30:23;;;;;;;1.52;1.30;;;12.40;95.90;;;;;;5022720;28;20565;-69
2024/03/28 09:33:10;;;;;;;1.45;1.02;;;12.40;95.80;;;;;;5028269;28;20416;-70
2024/03/28 09:35:56;;;;;;;1.65;1.10;;;12.50;95.70;;;;;;5026136;28;20053;-64
2024/03/28 09:38:44;;;;;;;1.67;1.00;;;12.60;95.50;;;;;;5027831;28;20061;-63
2024/03/28 09:41:32;;;;;;;1.45;1.10;;;12.70;95.40;;;;;;5023702;28;20038;-63
2024/03/28 09:44:20;;;;;;;0.77;0.60;;;12.80;95.40;;;;;;5023085;28;20045;-64
2024/03/28 09:47:08;;;;;;;2.63;1.10;;;12.90;95.20;;;;;;5013320;28;20045;-65
2024/03/28 09:49:57;;;;;;;1.58;0.82;;;13.00;95.20;;;;;;5045927;28;20046;-64
2024/03/28 09:52:49;;;;;;;1.05;0.60;;;13.10;95.00;;;;;;5040105;28;20179;-64
2024/03/28 09:55:37;;;;;;;0.80;0.80;;;13.20;94.80;;;;;;5022238;28;20052;-65
2024/03/28 09:58:23;;;;;;;3.33;0.68;;;13.20;94.70;;;;;;5027932;28;20057;-64
2024/03/28 10:01:09;;;;;;;0.57;0.57;;;13.30;94.40;;;;;;5033451;28;20044;-64
2024/03/28 10:03:59;;;;;;;0.52;0.52;;;13.30;94.30;;;;;;5032810;28;20404;-62
2024/03/28 10:06:50;;;;;;;0.82;0.50;;;13.40;94.20;;;;;;5032223;28;20041;-62
2024/03/28 10:09:36;;;;;;;0.60;0.60;;;13.50;94.10;;;;;;5031183;28;20053;-63
2024/03/28 10:12:22;;;;;;;1.77;0.93;;;13.60;94.00;;;;;;5035748;28;20584;-63
2024/03/28 10:15:14;;;;;;;0.50;0.50;;;13.70;94.00;;;;;;5048340;28;20041;-63
2024/03/28 10:18:05;;;;;;;2.97;0.88;;;13.90;93.80;;;;;;5047606;28;20391;-63
2024/03/28 10:20:55;;;;;;;1.30;0.63;;;14.00;93.70;;;;;;5050271;28;20045;-63
2024/03/28 10:23:42;;;;;;;0.50;0.50;;;14.10;93.50;;;;;;5051711;28;20056;-63
2024/03/28 10:26:29;;;;;;;1.40;0.90;;;14.10;93.30;;;;;;5050770;28;20056;-63
2024/03/28 10:29:18;;;;;;;1.52;0.70;;;14.20;93.20;;;;;;5026218;28;20037;-63
2024/03/28 10:32:05;;;;;;;0.70;0.57;;;14.30;93.10;;;;;;5045213;28;20045;-64
2024/03/28 10:34:53;;;;;;;0.88;0.77;;;14.40;92.90;;;;;;5044501;28;20147;-63
2024/03/28 10:37:39;;;;;;;2.05;1.13;;;14.50;92.80;;;;;;5048242;28;20045;-63
2024/03/28 10:40:27;;;;;;;2.65;1.77;;;14.50;92.70;;;;;;5052394;28;20053;-63
2024/03/28 10:43:15;;;;;;;2.35;0.90;;;14.70;92.60;;;;;;5046332;28;20511;-62
2024/03/28 10:46:02;;;;;;;1.02;0.80;;;14.70;92.30;;;;;;5049901;28;20551;-63
2024/03/28 10:48:51;;;;;;;2.20;0.95;;;14.80;92.10;;;;;;5037299;28;20041;-63
2024/03/28 10:51:43;;;;;;;0.90;0.77;;;14.90;91.80;;;;;;5049776;28;20055;-63
2024/03/28 10:54:46;;;;;;;2.30;1.15;;;14.90;91.50;;;;;;5052380;28;20041;-63
2024/03/28 10:57:37;;;;;;;1.27;0.50;;;14.90;91.30;;;;;;5047475;28;20429;-63
2024/03/28 11:00:23;;;;;;;1.95;1.00;;;15.00;91.20;;;;;;5051764;28;20057;-63
2024/03/28 11:03:11;;;;;;;1.02;0.80;;;15.00;91.10;;;;;;5047083;28;20297;-66
2024/03/28 11:06:00;;;;;;;2.53;0.93;;;15.00;91.00;;;;;;5037801;28;20032;-65
2024/03/28 11:08:47;;;;;;;1.45;1.08;;;15.10;90.90;;;;;;5050669;28;20044;-66
2024/03/28 11:11:33;;;;;;;0.90;0.80;;;15.10;91.10;;;;;;5045055;28;20048;-65
2024/03/28 11:14:19;;;;;;;1.58;0.90;;;15.10;90.90;;;;;;5047338;28;20427;-66
2024/03/28 11:17:05;;;;;;;0.77;0.77;;;15.20;90.80;;;;;;5048912;28;20072;-66
2024/03/28 11:20:08;;;;;;;1.25;0.82;;;15.30;90.60;;;;;;5049584;28;20045;-65
2024/03/28 11:23:03;;;;;;;1.27;0.90;;;15.40;90.50;;;;;;5047514;28;20154;-66
2024/03/28 11:25:49;;;;;;;3.47;0.80;;;15.40;90.40;;;;;;5048893;28;20150;-66
2024/03/28 11:28:43;;;;;;;2.20;1.02;;;15.40;90.50;;;;;;5041962;28;20564;-65
2024/03/28 11:31:30;;;;;;;1.33;1.05;;;15.40;90.20;;;;;;5052283;28;20112;-66
2024/03/28 11:34:25;;;;;;;1.25;0.80;;;15.40;90.10;;;;;;5049202;28;20420;-66
2024/03/28 11:37:19;;;;;;;2.95;0.80;;;15.40;89.80;;;;;;5047987;28;20037;-66
2024/03/28 11:40:08;;;;;;;1.50;1.17;;;15.40;89.50;;;;;;5049800;28;20048;-66
2024/03/28 11:42:53;;;;;;;2.28;1.40;;;15.40;89.10;;;;;;5044729;28;20041;-66
2024/03/28 11:46:01;;;;;;;2.50;1.25;;;15.40;88.80;;;;;;5051880;28;20139;-66
2024/03/28 11:48:54;;;;;;;2.55;1.60;;;15.40;88.40;;;;;;5048655;28;20037;-66
2024/03/28 11:51:40;;;;;;;2.50;1.67;;;15.40;88.20;;;;;;5048548;28;20405;-66
2024/03/28 11:54:27;;;;;;;1.92;1.48;;;15.40;88.10;;;;;;5030564;28;20045;-66
2024/03/28 11:57:19;;;;;;;2.67;1.45;;;15.30;88.20;;;;;;5045754;28;20041;-66
2024/03/28 12:00:07;;;;;;;2.53;1.38;;;15.30;87.70;;;;;;5046430;28;20500;-67
2024/03/28 12:02:57;;;;;;;4.20;1.67;;;15.30;87.60;;;;;;5050307;28;20033;-67
2024/03/28 12:05:48;;;;;;;3.30;1.35;;;15.30;87.30;;;;;;5050002;28;20413;-67
2024/03/28 12:08:34;;;;;;;1.88;1.45;;;15.30;87.40;;;;;;5033236;28;20160;-67
2024/03/28 12:11:20;;;;;;;2.78;1.90;;;15.30;87.70;;;;;;5033297;28;20041;-67
2024/03/28 12:14:06;;;;;;;2.80;1.40;;;15.40;87.50;;;;;;5041830;28;20049;-67
2024/03/28 12:16:52;;;;;;;2.30;1.48;;;15.40;87.20;;;;;;5036086;28;20077;-66
2024/03/28 12:19:38;;;;;;;2.25;1.45;;;15.50;86.80;;;;;;5049880;28;20052;-66
2024/03/28 12:22:25;;;;;;;2.65;1.65;;;15.50;86.80;;;;;;5043625;28;20493;-67
2024/03/28 12:25:11;;;;;;;1.98;1.35;;;15.60;86.70;;;;;;5042957;28;20041;-67
2024/03/28 12:28:05;;;;;;;2.42;1.50;;;15.70;86.40;;;;;;5045193;28;20045;-67
2024/03/28 12:30:52;;;;;;;2.65;1.30;;;15.90;86.40;;;;;;5039590;28;20048;-67
2024/03/28 12:33:38;;;;;;;2.10;1.17;;;15.90;86.10;;;;;;5030432;28;20064;-67
2024/03/28 12:36:24;;;;;;;3.58;1.77;;;16.00;85.70;;;;;;5036716;28;20065;-67
2024/03/28 12:39:10;;;;;;;1.70;1.40;;;16.00;85.30;;;;;;5029266;28;20045;-66
2024/03/28 12:41:56;;;;;;;2.28;1.48;;;16.00;85.10;;;;;;5026549;28;20049;-67
2024/03/28 12:44:42;;;;;;;2.10;1.50;;;16.10;84.80;;;;;;5047115;28;20091;-67
2024/03/28 12:47:28;;;;;;;3.72;1.55;;;16.10;84.80;;;;;;5038316;28;20052;-67
2024/03/28 12:50:17;;;;;;;1.73;1.38;;;16.20;84.40;;;;;;5044517;28;20037;-67
2024/03/28 12:53:05;;;;;;;1.92;1.30;;;16.30;84.00;;;;;;5040101;28;20040;-66
2024/03/28 12:55:51;;;;;;;2.65;1.00;;;16.30;83.90;;;;;;5047976;28;20239;-67
2024/03/28 12:58:37;;;;;;;3.20;1.20;;;16.40;84.10;;;;;;5034268;28;20049;-67
2024/03/28 13:01:23;;;;;;;3.45;1.27;;;16.50;83.80;;;;;;5044588;28;20035;-67
2024/03/28 13:04:09;;;;;;;4.20;1.40;;;16.60;83.20;;;;;;5046818;28;20037;-68
2024/03/28 13:06:55;;;;;;;3.28;1.20;;;16.70;83.10;;;;;;5048881;28;20124;-69
2024/03/28 13:09:41;;;;;;;2.47;1.40;;;16.70;82.20;;;;;;5040049;28;20123;-69
2024/03/28 13:12:27;;;;;;;2.55;1.67;;;16.70;81.90;;;;;;5018763;28;20053;-68
2024/03/28 13:15:14;;;;;;;2.08;1.52;;;16.70;81.40;;;;;;5034397;28;20037;-70
2024/03/28 13:17:59;;;;;;;3.22;1.60;;;16.70;81.70;;;;;;5041723;28;20053;-68
2024/03/28 13:20:45;;;;;;;2.85;1.90;;;16.70;81.40;;;;;;5035757;28;20032;-68
2024/03/28 13:23:31;;;;;;;4.78;1.60;;;16.70;81.00;;;;;;5044859;28;20037;-68
2024/03/28 13:26:17;;;;;;;3.88;1.42;;;16.60;80.90;;;;;;5048279;28;20044;-68
2024/03/28 13:29:04;;;;;;;3.45;1.35;;;16.50;80.70;;;;;;5045795;28;20048;-68
2024/03/28 13:31:50;;;;;;;2.33;1.60;;;16.50;80.50;;;;;;5046300;28;20037;-67
2024/03/28 13:34:36;;;;;;;4.53;1.27;;;16.40;80.60;;;;;;5047167;28;20579;-67
2024/03/28 13:37:22;;;;;;;3.63;1.40;;;16.40;80.40;;;;;;5040652;28;20036;-68
2024/03/28 13:40:08;;;;;;;2.83;1.55;;;16.30;80.30;;;;;;5046874;28;20283;-68
2024/03/28 13:42:54;;;;;;;2.25;1.55;;;16.30;80.20;;;;;;5040664;28;20061;-66
2024/03/28 13:45:40;;;;;;;3.58;1.60;;;16.30;80.00;;;;;;5037584;28;20072;-66
2024/03/28 13:48:28;;;;;;;3.72;1.50;;;16.20;79.80;;;;;;5050022;28;20114;-66
2024/03/28 13:51:14;;;;;;;3.13;1.40;;;16.20;79.50;;;;;;5046532;28;20787;-70
2024/03/28 13:54:00;;;;;;;1.92;1.33;;;16.20;80.10;;;;;;5045581;28;20041;-66
2024/03/28 13:56:46;;;;;;;8.05;1.63;;;16.10;79.40;;;;;;5044132;28;20048;-66
2024/03/28 13:59:32;;;;;;;3.15;1.30;;;16.10;79.60;;;;;;5040608;28;20057;-66
2024/03/28 14:02:18;;;;;;;3.28;1.52;;;16.20;79.10;;;;;;5048721;28;20588;-66
2024/03/28 14:05:04;;;;;;;4.55;1.80;;;16.20;79.00;;;;;;5046633;28;20040;-67
2024/03/28 14:07:50;;;;;;;4.90;1.63;;;16.20;78.80;;;;;;5047454;28;20132;-69
2024/03/28 14:10:40;;;;;;;2.55;1.30;;;16.20;78.40;;;;;;5046953;28;20045;-63
2024/03/28 14:13:26;;;;;;;2.80;1.10;;;16.10;78.10;;;;;;5039165;28;20139;-62
2024/03/28 14:16:13;;;;;;;3.72;1.20;;;16.20;78.00;;;;;;5051719;28;20045;-62
2024/03/28 14:18:59;;;;;;;1.50;1.10;;;16.10;78.20;;;;;;5040614;28;20053;-63
2024/03/28 14:21:45;;;;;;;1.33;1.05;;;16.10;78.10;;;;;;5040798;28;20422;-63
2024/03/28 14:24:31;;;;;;;2.10;1.02;;;16.10;77.90;;;;;;5049971;28;20408;-63
2024/03/28 14:27:17;;;;;;;2.42;1.17;;;16.00;78.00;;;;;;5045838;28;20103;-64
2024/03/28 14:30:03;;;;;;;2.97;1.10;;;16.00;78.10;;;;;;5045879;28;20095;-65